New Salem, MA (01355)

4:29 PM EDT on September 02, 2014 (GMT -0400)
West Pelham Road | Change Station
CLOSE
Current Station
Personal Weather Station
Location: Shutesbury, MA
Elevation: 1150 ft
Nearby Weather Stations

Elev 1150 ft 42.44 °N, 72.43 °W | Updated 4 minutes ago

Mostly Cloudy
Mostly Cloudy
80.0 °F
Feels Like 85 °F
N
0.0
Wind Variable Wind from ESE
Gusts 0.0 mph

Today
High -- | Low -- °F
--% Chance of Precip.
Yesterday
High -- | Low -- °F
Precip. -- in
6:15 AM 7:21 PM
First Quarter, 54% visible
Pressure 29.81 in
Visibility 10.0 miles
Clouds Few 9000 ft
Heat Index 85 °F
Dew Point 75 °F
Humidity 85%
Rainfall 1.24 in
Snow Depth Not available.
UV 4 out of 12
Pollen 8.20 out of 12
Air Quality Not available.
Flu Activity Not available.
METAR KORE 021952Z AUTO 18006KT 10SM FEW090 28/22 A2982 RMK AO2 LTG DSNT S SLP094 T02780217

More Conditions Fewer Conditions

Pressure 29.81 in
Visibility 10.0 miles
Clouds Few 9000 ft
Heat Index 85 °F
Dew Point 75 °F
Humidity 85%
Rainfall 1.24 in
Snow Depth Not available.
UV 4 out of 12
Pollen 8.20 out of 12
Air Quality Not available.
Flu Activity Not available.
METAR KORE 021952Z AUTO 18006KT 10SM FEW090 28/22 A2982 RMK AO2 LTG DSNT S SLP094 T02780217

More Conditions Fewer Conditions

10-Day Weather Forecast

Almanac

Astronomy

Sep. 02, 2014 Rise Set
Actual Time 6:15 AM EDT 7:21 PM EDT
Civil Twilight 5:46 AM EDT 7:50 PM EDT
Nautical Twilight 5:11 AM EDT 8:25 PM EDT
Astronomical Twilight 4:35 AM EDT 9:01 PM EDT
Moon 2:05 PM EDT No Moon Set
Length of Visible Light 14h 04m
Length of Day
13h 06m
Tomorrow will be 2m 46s shorter.
First Quarter, 54% of the Moon is Illuminated
Today
First Quarter
Sep 8
Full
Sep 15
Last Quarter
Sep 24
New
Oct 1
First Quarter

Today's Extremes

State Highs State Lows

Community

WunderPhotos

Upload Photos

1,749,757 photos uploaded!

WunderBlogs® & News

By Dr. Jeff Masters
Director of Meteorology, Weather Underground
By Kari Strenfel
Meteorologist, Weather Underground
By Christopher C. Burt
Weather Historian, Weather Underground
September 2, 2014
September 2, 2014
September 2, 2014

Nearby

Air Quality

  Air Quality AQ Index Pollutant
Tuesday Good
PM2.5
Tuesday Good
OZONE

Snow Depth

Station Depth Elevation
No new snow has been reported.

Earthquake Activity

City Distance Mag. Time & Date
No recent earthquake activity has been reported nearby.
Minimum magnitude displayed is 2.5.

Coastal Water Temperatures

Place Temperature
No Stations Reporting

Nearby Weather Stations